createdAt,value
2023-01-19T00:02:08.273Z,51.10
2023-01-19T00:04:44.787Z,51.00
2023-01-19T00:07:18.914Z,51.60
2023-01-19T00:09:52.234Z,52.10
2023-01-19T00:12:25.735Z,52.40
2023-01-19T00:14:59.035Z,52.50
2023-01-19T00:17:32.580Z,52.70
2023-01-19T00:20:08.961Z,52.90
2023-01-19T00:22:42.376Z,52.90
2023-01-19T00:25:15.852Z,53.20
2023-01-19T00:27:50.806Z,53.00
2023-01-19T00:30:24.320Z,53.00
2023-01-19T00:32:58.258Z,53.10
2023-01-19T00:35:33.174Z,53.10
2023-01-19T00:38:06.761Z,53.00
2023-01-19T00:40:40.253Z,53.00
2023-01-19T00:43:13.521Z,53.10
2023-01-19T00:45:47.041Z,53.20
2023-01-19T00:48:20.422Z,53.10
2023-01-19T00:50:55.112Z,53.00
2023-01-19T00:53:32.431Z,52.90
2023-01-19T00:56:06.237Z,52.70
2023-01-19T00:58:39.327Z,52.70
2023-01-19T01:01:12.872Z,52.50
2023-01-19T01:03:46.495Z,52.60
2023-01-19T01:06:21.214Z,52.50
2023-01-19T01:08:54.489Z,52.50
2023-01-19T01:11:27.795Z,52.50
2023-01-19T01:14:01.123Z,52.40
2023-01-19T01:16:34.701Z,52.30
2023-01-19T01:19:08.105Z,52.40
2023-01-19T01:21:43.216Z,52.40
2023-01-19T01:24:16.926Z,52.30
2023-01-19T01:26:50.266Z,52.30
2023-01-19T01:29:23.780Z,52.30
2023-01-19T01:31:57.084Z,52.20
2023-01-19T01:34:30.418Z,52.20
2023-01-19T01:37:08.185Z,52.10
2023-01-19T01:39:41.515Z,52.60
2023-01-19T01:42:18.563Z,52.10
2023-01-19T01:44:54.524Z,52.20
2023-01-19T01:47:33.640Z,52.10
2023-01-19T01:50:12.257Z,52.10
2023-01-19T01:53:06.527Z,52.20
2023-01-19T01:55:46.787Z,52.30
2023-01-19T01:58:20.212Z,52.30
2023-01-19T02:01:10.671Z,52.20
2023-01-19T02:03:44.151Z,52.20
2023-01-19T02:06:18.155Z,52.10
2023-01-19T02:09:15.019Z,52.10
2023-01-19T02:12:06.540Z,52.20
2023-01-19T02:14:39.856Z,52.10
2023-01-19T02:17:13.251Z,52.20
2023-01-19T02:19:46.802Z,52.20
2023-01-19T02:22:25.805Z,52.20
2023-01-19T02:25:00.803Z,52.30
2023-01-19T02:27:37.013Z,52.30
2023-01-19T02:30:12.242Z,52.30
2023-01-19T02:32:45.833Z,52.30
2023-01-19T02:35:23.441Z,52.40
2023-01-19T02:37:57.295Z,52.40
2023-01-19T02:40:31.977Z,52.50
2023-01-19T02:43:08.790Z,52.30
2023-01-19T02:45:43.475Z,52.40
2023-01-19T02:48:18.470Z,52.50
2023-01-19T02:50:55.009Z,52.40
2023-01-19T02:54:04.589Z,52.40
2023-01-19T02:56:51.884Z,52.30
2023-01-19T02:59:37.194Z,52.30
2023-01-19T03:02:21.323Z,52.30
2023-01-19T03:05:08.314Z,52.40
2023-01-19T03:07:52.198Z,52.30
2023-01-19T03:10:32.788Z,52.40
2023-01-19T03:13:15.103Z,52.50
2023-01-19T03:15:52.617Z,52.50
2023-01-19T03:18:30.844Z,52.50
2023-01-19T03:21:08.301Z,52.50
2023-01-19T03:23:44.237Z,52.60
2023-01-19T03:26:20.571Z,52.60
2023-01-19T03:28:56.838Z,52.60
2023-01-19T03:31:32.770Z,52.50
2023-01-19T03:34:10.495Z,52.50
2023-01-19T03:36:47.193Z,52.50
2023-01-19T03:39:23.950Z,52.40
2023-01-19T03:42:01.479Z,52.40
2023-01-19T03:44:38.696Z,52.40
2023-01-19T03:47:14.574Z,52.40
2023-01-19T03:49:48.321Z,52.40
2023-01-19T03:52:29.792Z,52.40
2023-01-19T03:55:04.892Z,52.40
2023-01-19T03:57:39.100Z,52.40
2023-01-19T04:00:15.666Z,52.50
2023-01-19T04:02:48.987Z,52.50
2023-01-19T04:05:22.358Z,52.50
2023-01-19T04:07:55.677Z,52.50
2023-01-19T04:10:29.023Z,52.50
2023-01-19T04:13:03.552Z,52.50
2023-01-19T04:15:38.778Z,52.50
2023-01-19T04:18:12.100Z,52.40
2023-01-19T04:20:45.443Z,52.40
2023-01-19T04:23:18.716Z,52.40
2023-01-19T04:25:52.036Z,52.40
2023-01-19T04:28:25.401Z,52.40
2023-01-19T04:31:00.247Z,52.40
2023-01-19T04:33:33.838Z,52.40
2023-01-19T04:36:08.518Z,52.40
2023-01-19T04:38:42.103Z,52.40
2023-01-19T04:41:15.488Z,52.40
2023-01-19T04:43:48.789Z,52.40
2023-01-19T04:46:23.513Z,52.40
2023-01-19T04:48:56.825Z,52.50
2023-01-19T04:51:30.113Z,52.50
2023-01-19T04:54:04.016Z,52.50
2023-01-19T04:56:37.830Z,52.50
2023-01-19T04:59:11.530Z,52.40
2023-01-19T05:01:46.195Z,52.40
2023-01-19T05:04:19.547Z,52.30
2023-01-19T05:06:54.245Z,52.30
2023-01-19T05:09:27.970Z,52.30
2023-01-19T05:12:01.272Z,52.30
2023-01-19T05:14:34.570Z,52.30
2023-01-19T05:17:09.249Z,52.30
2023-01-19T05:19:42.552Z,52.30
2023-01-19T05:22:15.893Z,52.30
2023-01-19T05:24:49.197Z,52.40
2023-01-19T05:27:22.562Z,52.40
2023-01-19T05:29:55.849Z,52.40
2023-01-19T05:32:30.527Z,52.30
2023-01-19T05:35:03.882Z,52.30
2023-01-19T05:37:37.279Z,52.30
2023-01-19T05:40:11.671Z,52.40
2023-01-19T05:42:45.344Z,52.30
2023-01-19T05:45:18.796Z,52.30
2023-01-19T05:47:54.699Z,52.20
2023-01-19T05:50:28.174Z,52.20
2023-01-19T05:53:02.037Z,52.20
2023-01-19T05:55:35.599Z,52.20
2023-01-19T05:58:08.878Z,52.10
2023-01-19T06:00:42.293Z,52.10
2023-01-19T06:03:16.972Z,52.10
2023-01-19T06:05:50.312Z,52.10
2023-01-19T06:08:23.566Z,52.10
2023-01-19T06:10:57.107Z,52.20
2023-01-19T06:13:30.437Z,52.10
2023-01-19T06:16:04.425Z,52.20
2023-01-19T06:18:39.155Z,52.20
2023-01-19T06:21:14.281Z,52.30
2023-01-19T06:23:47.742Z,52.20
2023-01-19T06:26:21.077Z,52.20
2023-01-19T06:28:54.609Z,52.20
2023-01-19T06:31:27.952Z,52.20
2023-01-19T06:34:02.994Z,52.30
2023-01-19T06:36:36.271Z,52.50
2023-01-19T06:39:10.774Z,52.50
2023-01-19T06:41:44.075Z,52.50
2023-01-19T06:44:17.524Z,52.50
2023-01-19T06:46:50.801Z,52.50
2023-01-19T06:49:26.459Z,52.60
2023-01-19T06:51:59.768Z,52.50
2023-01-19T06:54:33.130Z,52.50
2023-01-19T06:57:06.406Z,52.60
2023-01-19T06:59:39.760Z,52.70
2023-01-19T07:02:27.201Z,52.60
2023-01-19T07:05:03.121Z,52.70
2023-01-19T07:07:36.924Z,52.70
2023-01-19T07:10:11.741Z,52.70
2023-01-19T07:12:47.737Z,52.80
2023-01-19T07:15:22.627Z,52.50
2023-01-19T07:17:59.700Z,52.60
2023-01-19T07:20:34.624Z,52.30
2023-01-19T07:23:07.930Z,52.50
2023-01-19T07:25:41.215Z,52.40
2023-01-19T07:28:15.994Z,52.50
2023-01-19T07:30:52.701Z,52.60
2023-01-19T07:33:26.297Z,52.80
2023-01-19T07:38:59.099Z,53.00
2023-01-19T07:41:32.543Z,53.50
2023-01-19T07:44:06.308Z,53.70
2023-01-19T07:46:39.870Z,53.70
2023-01-19T07:49:13.479Z,54.10
2023-01-19T07:51:48.557Z,54.00
2023-01-19T07:54:21.888Z,54.10
2023-01-19T07:56:55.757Z,50.10
2023-01-19T07:59:30.335Z,38.60
2023-01-19T08:02:03.770Z,33.90
2023-01-19T08:04:37.242Z,31.90
2023-01-19T08:07:11.945Z,31.10
2023-01-19T08:09:45.578Z,30.80
2023-01-19T08:12:18.947Z,31.10
2023-01-19T08:14:52.301Z,32.90
2023-01-19T08:17:25.633Z,34.00
2023-01-19T08:19:59.356Z,35.30
2023-01-19T08:22:33.815Z,35.60
2023-01-19T08:25:07.720Z,37.40
2023-01-19T08:27:40.993Z,37.10
2023-01-19T08:30:14.903Z,37.40
2023-01-19T08:32:48.195Z,37.80
2023-01-19T08:35:22.564Z,38.30
2023-01-19T08:38:01.113Z,39.00
2023-01-19T08:40:36.402Z,39.30
2023-01-19T08:43:11.914Z,39.40
2023-01-19T08:45:48.419Z,39.60
2023-01-19T08:48:23.615Z,39.70
2023-01-19T08:50:56.916Z,39.80
2023-01-19T08:53:31.588Z,40.10
2023-01-19T08:56:05.914Z,40.30
2023-01-19T08:58:39.636Z,40.40
2023-01-19T09:01:16.827Z,40.30
2023-01-19T09:03:50.673Z,40.40
2023-01-19T09:06:25.287Z,40.30
2023-01-19T09:08:59.956Z,40.40
2023-01-19T09:11:34.948Z,40.70
2023-01-19T09:14:08.470Z,40.70
2023-01-19T09:16:42.004Z,40.80
2023-01-19T09:19:15.286Z,40.80
2023-01-19T09:21:48.574Z,41.00
2023-01-19T09:24:23.449Z,41.00
2023-01-19T09:26:56.913Z,41.00
2023-01-19T09:29:30.235Z,41.00
2023-01-19T09:32:03.532Z,41.50
2023-01-19T09:34:36.800Z,41.80
2023-01-19T09:37:10.104Z,42.20
2023-01-19T09:39:44.888Z,42.50
2023-01-19T09:42:24.665Z,42.60
2023-01-19T09:44:58.072Z,42.80
2023-01-19T09:47:32.109Z,42.90
2023-01-19T09:50:11.379Z,42.90
2023-01-19T09:52:54.839Z,43.10
2023-01-19T09:55:29.589Z,43.30
2023-01-19T09:58:04.594Z,43.30
2023-01-19T10:00:38.054Z,43.50
2023-01-19T10:03:17.316Z,43.70
2023-01-19T10:05:55.873Z,43.70
2023-01-19T10:08:40.191Z,43.70
2023-01-19T10:11:38.128Z,43.80
2023-01-19T10:14:26.542Z,43.80
2023-01-19T10:17:08.587Z,44.00
2023-01-19T10:19:46.868Z,44.20
2023-01-19T10:22:23.024Z,44.20
2023-01-19T10:24:58.581Z,44.30
2023-01-19T10:27:35.729Z,44.40
2023-01-19T10:30:16.460Z,44.60
2023-01-19T10:32:50.422Z,44.80
2023-01-19T10:35:25.506Z,44.80
2023-01-19T10:38:03.079Z,44.90
2023-01-19T10:40:42.160Z,45.10
2023-01-19T10:43:39.766Z,45.20
2023-01-19T10:46:24.213Z,45.10
2023-01-19T10:48:57.730Z,45.30
2023-01-19T10:51:31.540Z,45.30
2023-01-19T10:54:06.358Z,45.30
2023-01-19T10:56:40.428Z,45.50
2023-01-19T10:59:32.910Z,46.20
2023-01-19T11:02:19.011Z,46.40
2023-01-19T11:04:54.089Z,46.70
2023-01-19T11:07:31.230Z,46.60
2023-01-19T11:10:22.547Z,46.80
2023-01-19T11:13:02.818Z,46.80
2023-01-19T11:15:43.774Z,46.80
2023-01-19T11:18:27.078Z,46.60
2023-01-19T11:21:02.937Z,46.60
2023-01-19T11:23:42.074Z,46.70
2023-01-19T11:26:25.470Z,46.60
2023-01-19T11:29:00.546Z,46.60
2023-01-19T11:31:36.813Z,46.60
2023-01-19T11:34:26.448Z,46.60
2023-01-19T11:37:02.032Z,46.50
2023-01-19T11:39:48.304Z,46.70
2023-01-19T11:42:22.240Z,46.60
2023-01-19T11:44:59.291Z,46.70
2023-01-19T11:47:39.297Z,46.40
2023-01-19T11:50:23.584Z,46.80
2023-01-19T11:53:02.062Z,46.40
2023-01-19T11:55:39.559Z,46.50
2023-01-19T11:58:16.571Z,46.40
2023-01-19T12:00:54.576Z,46.10
2023-01-19T12:03:32.875Z,45.70
2023-01-19T12:06:10.962Z,45.20
2023-01-19T12:08:49.109Z,44.90
2023-01-19T12:11:27.642Z,44.50
2023-01-19T12:14:02.371Z,44.20
2023-01-19T12:16:39.320Z,43.90
2023-01-19T12:19:19.357Z,44.30
2023-01-19T12:21:53.122Z,43.70
2023-01-19T12:24:32.964Z,43.40
2023-01-19T12:27:16.351Z,43.40
2023-01-19T12:29:50.362Z,43.30
2023-01-19T12:32:34.898Z,43.10
2023-01-19T12:35:49.633Z,43.00
2023-01-19T12:38:45.275Z,43.00
2023-01-19T12:41:26.855Z,42.70
2023-01-19T12:44:22.387Z,42.40
2023-01-19T12:46:57.567Z,42.00
2023-01-19T12:49:34.582Z,42.00
2023-01-19T12:52:28.085Z,42.10
2023-01-19T12:55:07.730Z,42.90
2023-01-19T12:57:49.488Z,43.10
2023-01-19T13:00:40.815Z,43.90
2023-01-19T13:03:46.980Z,44.50
2023-01-19T13:06:20.327Z,44.70
2023-01-19T13:09:04.359Z,44.80
2023-01-19T13:12:01.028Z,45.10
2023-01-19T13:14:38.637Z,45.20
2023-01-19T13:17:28.019Z,45.30
2023-01-19T13:20:25.489Z,45.60
2023-01-19T13:23:18.590Z,45.80
2023-01-19T13:26:03.517Z,45.80
2023-01-19T13:28:41.951Z,45.70
2023-01-19T13:31:16.050Z,45.70
2023-01-19T13:33:52.807Z,45.80
2023-01-19T13:36:30.661Z,45.90
2023-01-19T13:39:07.313Z,46.00
2023-01-19T13:41:43.278Z,46.00
2023-01-19T13:44:23.768Z,46.10
2023-01-19T13:46:59.727Z,46.00
2023-01-19T13:49:36.578Z,46.10
2023-01-19T13:52:14.775Z,46.20
2023-01-19T13:54:53.198Z,46.10
2023-01-19T13:57:29.688Z,46.20
2023-01-19T14:00:09.009Z,46.20
2023-01-19T14:02:55.290Z,46.30
2023-01-19T14:05:31.296Z,46.40
2023-01-19T14:08:07.364Z,46.90
2023-01-19T14:10:42.807Z,46.40
2023-01-19T14:13:20.204Z,46.30
2023-01-19T14:15:56.394Z,46.30
2023-01-19T14:18:31.548Z,45.90
2023-01-19T14:21:08.107Z,45.80
2023-01-19T14:23:47.988Z,45.60
2023-01-19T14:26:49.701Z,45.40
2023-01-19T14:29:29.219Z,44.90
2023-01-19T14:32:12.140Z,44.70
2023-01-19T14:34:47.750Z,44.60
2023-01-19T14:37:27.262Z,44.50
2023-01-19T14:40:04.707Z,44.20
2023-01-19T14:42:46.328Z,44.20
2023-01-19T14:45:24.276Z,43.60
2023-01-19T14:47:59.845Z,43.40
2023-01-19T14:50:36.041Z,43.40
2023-01-19T14:53:17.201Z,43.50
2023-01-19T14:55:52.865Z,43.50
2023-01-19T14:58:28.361Z,43.50
2023-01-19T15:01:03.619Z,43.50
2023-01-19T15:03:45.589Z,43.60
2023-01-19T15:06:21.454Z,43.60
2023-01-19T15:08:55.794Z,43.90
2023-01-19T15:11:33.063Z,43.60
2023-01-19T15:14:06.457Z,43.60
2023-01-19T15:16:41.461Z,43.70
2023-01-19T15:19:16.953Z,43.90
2023-01-19T15:21:50.403Z,44.20
2023-01-19T15:24:23.806Z,44.40
2023-01-19T15:27:01.599Z,44.60
2023-01-19T15:29:37.223Z,44.80
2023-01-19T15:32:14.941Z,45.00
2023-01-19T15:34:48.213Z,45.20
2023-01-19T15:37:21.645Z,45.40
2023-01-19T15:39:54.955Z,45.40
2023-01-19T15:42:28.305Z,45.50
2023-01-19T15:45:01.626Z,45.60
2023-01-19T15:47:36.303Z,45.60
2023-01-19T15:50:10.945Z,45.70
2023-01-19T15:52:44.378Z,45.70
2023-01-19T15:55:17.780Z,46.30
2023-01-19T15:57:51.117Z,46.30
2023-01-19T16:00:24.816Z,46.40
2023-01-19T16:02:59.772Z,47.10
2023-01-19T16:05:42.547Z,46.90
2023-01-19T16:08:16.733Z,47.20
2023-01-19T16:10:50.076Z,47.80
2023-01-19T16:13:23.445Z,47.20
2023-01-19T16:15:56.819Z,47.80
2023-01-19T16:18:31.882Z,47.70
2023-01-19T16:21:05.491Z,47.80
2023-01-19T16:23:39.074Z,48.20
2023-01-19T16:26:29.516Z,48.40
2023-01-19T16:29:07.986Z,48.30
2023-01-19T16:31:42.974Z,48.40
2023-01-19T16:34:18.125Z,48.10
2023-01-19T16:36:52.074Z,47.80
2023-01-19T16:39:25.439Z,47.40
2023-01-19T16:41:58.791Z,48.00
2023-01-19T16:44:32.128Z,48.40
2023-01-19T16:47:06.280Z,48.50
2023-01-19T16:49:41.080Z,48.80
2023-01-19T16:52:14.443Z,48.90
2023-01-19T16:54:47.826Z,48.90
2023-01-19T16:57:21.956Z,48.70
2023-01-19T16:59:55.967Z,49.10
2023-01-19T17:02:29.532Z,49.40
2023-01-19T17:07:41.572Z,49.90
2023-01-19T17:10:15.062Z,51.40
2023-01-19T17:12:48.368Z,52.30
2023-01-19T17:15:21.921Z,53.10
2023-01-19T17:18:01.273Z,54.50
2023-01-19T17:20:35.188Z,56.00
2023-01-19T17:23:10.271Z,56.40
2023-01-19T17:25:43.941Z,56.70
2023-01-19T17:28:17.860Z,57.60
2023-01-19T17:30:51.907Z,57.90
2023-01-19T17:33:26.160Z,58.10
2023-01-19T17:36:03.866Z,57.60
2023-01-19T17:38:38.957Z,56.90
2023-01-19T17:41:15.870Z,56.60
2023-01-19T17:43:50.419Z,56.30
2023-01-19T17:46:26.373Z,56.10
2023-01-19T17:49:01.548Z,57.50
2023-01-19T17:51:35.021Z,58.30
2023-01-19T17:54:10.707Z,59.40
2023-01-19T17:56:44.023Z,59.90
2023-01-19T17:59:17.497Z,60.60
2023-01-19T18:01:51.133Z,60.70
2023-01-19T18:04:24.407Z,61.30
2023-01-19T18:06:58.101Z,61.90
2023-01-19T18:09:32.843Z,61.70
2023-01-19T18:12:06.430Z,61.80
2023-01-19T18:14:40.300Z,60.80
2023-01-19T18:17:13.691Z,60.00
2023-01-19T18:19:47.105Z,59.50
2023-01-19T18:22:20.438Z,59.30
2023-01-19T18:24:55.587Z,59.10
2023-01-19T18:27:30.303Z,58.90
2023-01-19T18:30:03.764Z,58.70
2023-01-19T18:32:37.197Z,58.50
2023-01-19T18:35:10.998Z,58.20
2023-01-19T18:37:44.348Z,58.00
2023-01-19T18:40:19.561Z,57.90
2023-01-19T18:42:53.035Z,57.80
2023-01-19T18:45:26.451Z,57.60
2023-01-19T18:48:01.576Z,57.60
2023-01-19T18:50:35.257Z,57.50
2023-01-19T18:53:08.671Z,57.10
2023-01-19T18:55:52.090Z,57.00
2023-01-19T18:58:28.546Z,56.90
2023-01-19T19:01:02.651Z,56.80
2023-01-19T19:03:37.004Z,56.50
2023-01-19T19:06:10.380Z,56.40
2023-01-19T19:08:44.426Z,56.30
2023-01-19T19:11:19.455Z,56.00
2023-01-19T19:13:54.067Z,55.90
2023-01-19T19:16:28.568Z,55.70
2023-01-19T19:19:02.019Z,55.50
2023-01-19T19:21:35.606Z,55.80
2023-01-19T19:24:09.271Z,55.90
2023-01-19T19:26:44.029Z,55.90
2023-01-19T19:29:17.432Z,56.10
2023-01-19T19:31:50.786Z,56.30
2023-01-19T19:34:25.145Z,56.40
2023-01-19T19:37:01.045Z,56.30
2023-01-19T19:39:38.364Z,56.10
2023-01-19T19:42:13.230Z,56.40
2023-01-19T19:44:46.655Z,56.30
2023-01-19T19:47:20.047Z,56.30
2023-01-19T19:49:54.614Z,56.30
2023-01-19T19:52:28.711Z,56.30
2023-01-19T19:55:02.234Z,56.30
2023-01-19T19:57:36.999Z,56.20
2023-01-19T20:00:11.902Z,56.10
2023-01-19T20:02:45.615Z,55.90
2023-01-19T20:05:19.215Z,55.90
2023-01-19T20:07:52.710Z,55.60
2023-01-19T20:10:26.348Z,55.90
2023-01-19T20:13:01.252Z,55.80
2023-01-19T20:15:38.627Z,55.90
2023-01-19T20:18:12.254Z,56.00
2023-01-19T20:20:46.939Z,55.80
2023-01-19T20:23:20.316Z,55.90
2023-01-19T20:25:54.433Z,56.00
2023-01-19T20:28:29.419Z,55.90
2023-01-19T20:31:10.773Z,55.80
2023-01-19T20:33:44.523Z,55.70
2023-01-19T20:36:18.202Z,55.70
2023-01-19T20:38:52.316Z,55.70
2023-01-19T20:41:26.646Z,55.60
2023-01-19T20:44:01.655Z,55.60
2023-01-19T20:46:35.172Z,55.60
2023-01-19T20:49:08.591Z,55.60
2023-01-19T20:51:45.102Z,55.60
2023-01-19T20:54:19.870Z,55.50
2023-01-19T20:56:53.551Z,55.40
2023-01-19T20:59:28.747Z,55.40
2023-01-19T21:02:02.184Z,55.30
2023-01-19T21:04:35.656Z,55.10
2023-01-19T21:07:09.165Z,55.00
2023-01-19T21:09:42.805Z,55.30
2023-01-19T21:12:16.261Z,55.20
2023-01-19T21:14:51.071Z,55.10
2023-01-19T21:17:24.341Z,55.00
2023-01-19T21:19:57.637Z,54.90
2023-01-19T21:22:30.981Z,55.00
2023-01-19T21:25:04.650Z,54.90
2023-01-19T21:27:38.020Z,55.00
2023-01-19T21:30:13.393Z,54.90
2023-01-19T21:32:46.747Z,54.80
2023-01-19T21:35:20.191Z,54.80
2023-01-19T21:37:53.586Z,54.70
2023-01-19T21:40:26.910Z,54.60
2023-01-19T21:43:00.414Z,54.60
2023-01-19T21:45:35.589Z,54.60
2023-01-19T21:48:09.626Z,54.60
2023-01-19T21:50:43.054Z,54.50
2023-01-19T21:53:17.253Z,54.50
2023-01-19T21:55:50.811Z,54.40
2023-01-19T21:58:24.694Z,54.40
2023-01-19T22:01:03.548Z,54.30
2023-01-19T22:03:36.921Z,54.80
2023-01-19T22:06:12.340Z,54.30
2023-01-19T22:08:46.579Z,54.40
2023-01-19T22:11:21.714Z,54.40
2023-01-19T22:13:55.211Z,54.50
2023-01-19T22:16:31.000Z,54.60
2023-01-19T22:19:06.257Z,54.80
2023-01-19T22:21:39.558Z,54.80
2023-01-19T22:24:13.224Z,54.80
2023-01-19T22:26:46.786Z,54.90
2023-01-19T22:29:20.095Z,55.00
2023-01-19T22:31:55.048Z,55.10
2023-01-19T22:34:28.609Z,55.10
2023-01-19T22:37:02.664Z,55.00
2023-01-19T22:39:36.688Z,55.10
2023-01-19T22:42:10.427Z,55.10
2023-01-19T22:44:43.734Z,55.80
2023-01-19T22:47:18.518Z,55.20
2023-01-19T22:49:51.811Z,55.00
2023-01-19T22:52:25.280Z,54.90
2023-01-19T22:54:58.631Z,55.00
2023-01-19T22:57:35.876Z,55.00
2023-01-19T23:00:10.703Z,55.00
2023-01-19T23:02:45.574Z,55.00
2023-01-19T23:05:18.919Z,55.00
2023-01-19T23:07:52.274Z,55.00
2023-01-19T23:10:25.598Z,55.00
2023-01-19T23:12:58.893Z,55.00
2023-01-19T23:15:34.094Z,55.00
2023-01-19T23:18:09.014Z,55.00
2023-01-19T23:20:42.327Z,55.00
2023-01-19T23:23:15.714Z,54.90
2023-01-19T23:25:49.027Z,54.80
2023-01-19T23:28:22.391Z,54.90
2023-01-19T23:30:55.798Z,54.90
2023-01-19T23:33:30.510Z,54.90
2023-01-19T23:36:03.848Z,54.80
2023-01-19T23:38:37.179Z,54.90
2023-01-19T23:41:10.546Z,54.90
2023-01-19T23:43:44.052Z,54.80
2023-01-19T23:46:18.395Z,54.70
2023-01-19T23:48:53.288Z,54.70
2023-01-19T23:51:28.734Z,54.80
2023-01-19T23:54:02.612Z,54.80
2023-01-19T23:56:37.413Z,54.70
2023-01-19T23:59:12.646Z,54.60
